• Join FlightAware (Why Join?)
  • Login
  • US Flag GB Flag 
18:14 EDT


 

Airport Tracker/Info


-or-


 

Live Flight TrackerFlight Track Log ✈ DAL6197 ✈ 27-Apr-2013 ✈ CYHZ - KLGA

Flight Track Log - Related Links

Times and Time Zones

All times are in EDT time to prevent confusion due to time zone crossing. See the DAL6197 flight status page for this flight to view local times or setup timezone preferences in your user account.

Time Position Orientation Groundspeed Altitude Reporting Facility
EDT Latitude Longitude Course Direction KTS MPH feet Rate Location/Type
13:51 44.8833 -63.5000 245° Southwest 140 161 2,300  Level Moncton Center
13:52 44.9000 -63.6000 283° West 210 242 4,800 2,700 Climbing Moncton Center
13:53 44.9000 -63.6833 270° West 260 299 7,800 2,820 Climbing Moncton Center
13:54 44.9000 -63.7833 270° West 270 311 10,500 2,760 Climbing Moncton Center
13:55 44.9000 -63.9000 270° West 280 322 13,400 2,700 Climbing Moncton Center
13:56 44.7568 -63.8853 245° Southwest  Level Estimated
13:56 44.9000 -64.0167 270° West 290 334 15,900  Level Moncton Center
13:57 44.9000 -64.1333 270° West 310 357 18,000 2,280 Climbing Moncton Center
13:58 44.9000 -64.2833 270° West 320 368 20,500 2,280 Climbing Moncton Center
13:59 44.9000 -64.4000 270° West 330 380 22,600 2,100 Climbing Moncton Center
14:00 44.9000 -64.5333 270° West 330 380 24,700 1,800 Climbing Moncton Center
14:01 44.9000 -64.6500 270° West 340 391 26,300 1,500 Climbing Moncton Center
14:02 44.9000 -64.8000 270° West 350 403 27,800 1,320 Climbing Moncton Center
14:03 44.9000 -64.9333 270° West 360 414 29,000 1,200 Climbing Moncton Center
14:04 44.9000 -65.1000 270° West 380 437 30,200 1,080 Climbing Moncton Center
14:05 44.9000 -65.2500 270° West 390 449 31,200 960 Climbing Moncton Center
14:06 44.9167 -65.4167 278° West 400 460 32,200 960 Climbing Moncton Center
14:07 44.9167 -65.5833 270° West 410 472 33,200 900 Climbing Moncton Center
14:08 44.9167 -65.7500 270° West 410 472 34,000 360 Climbing Moncton Center
14:09 44.9167 -65.8833 270° West 410 472 34,000  Level Moncton Center
14:10 44.9167 -66.0667 270° West 410 472 34,000  Level Moncton Center
14:11 44.8833 -66.2167 253° West 410 472 34,000  Level Moncton Center
14:12 44.8833 -66.3833 270° West 400 460 34,000  Level Moncton Center
14:13 44.8833 -66.5500 270° West 410 472 34,000  Level Moncton Center
14:14 44.8833 -66.7167 270° West 410 472 34,000  Level Moncton Center
14:15 44.9000 -66.8500 280° West 410 472 34,000  Level Moncton Center
14:16 44.8667 -67.0167 254° West 410 472 34,000  Level Moncton Center
14:17 44.8833 -67.1833 278° West 420 483 34,000  Level Moncton Center
14:18 44.8833 -67.3500 270° West 420 483 34,000  Level Moncton Center
14:19 44.8833 -67.5167 270° West 420 483 34,000  Level Moncton Center
14:20 44.8842 -67.6314 271° West 425 489 34,000  Level Boston Center
14:21 44.8783 -67.7961 267° West 425 489 34,000  Level Boston Center
14:22 44.8744 -67.9606 268° West 425 489 34,000  Level Boston Center
14:23 44.8681 -68.1194 267° West 425 489 34,000  Level Boston Center
14:24 44.8658 -68.2836 269° West 425 489 34,000  Level Boston Center
14:25 44.8589 -68.4394 266° West 420 483 34,000  Level Boston Center
14:26 44.8536 -68.5981 267° West 415 478 34,000  Level Boston Center
14:27 44.8461 -68.7508 266° West 405 466 34,000  Level Boston Center
14:28 44.8281 -68.9042 261° West 405 466 34,000  Level Boston Center
14:29 44.7839 -69.0297 244° Southwest 399 459 34,000  Level Boston Center
14:30 44.7275 -69.1703 241° Southwest 399 459 34,000  Level Boston Center
14:31 44.6731 -69.3078 241° Southwest 409 471 34,000  Level Boston Center
14:32 44.6183 -69.4447 241° Southwest 415 478 34,000  Level Boston Center
14:33 44.5614 -69.5847 240° Southwest 415 478 34,000  Level Boston Center
14:34 44.5044 -69.7242 240° Southwest 415 478 34,000  Level Boston Center
14:35 44.4472 -69.8664 241° Southwest 415 478 34,000  Level Boston Center
14:36 44.3881 -70.0172 241° Southwest 415 478 34,000  Level Boston Center
14:37 44.3283 -70.1589 240° Southwest 415 478 34,000  Level Boston Center
14:38 44.2728 -70.3003 241° Southwest 415 478 34,000  Level Boston Center
14:39 44.2147 -70.4414 240° Southwest 420 483 34,000  Level Boston Center
14:40 44.1567 -70.5822 240° Southwest 425 489 34,000  Level Boston Center
14:41 44.0983 -70.7200 240° Southwest 425 489 34,000  Level Boston Center
14:42 44.0381 -70.8661 240° Southwest 425 489 34,000  Level Boston Center
14:43 43.9794 -71.0033 239° Southwest 425 489 34,000  Level Boston Center
14:44 43.9206 -71.1458 240° Southwest 425 489 34,000  Level Boston Center
14:45 43.8617 -71.2883 240° Southwest 425 489 34,000  Level Boston Center
14:46 43.8006 -71.4275 239° Southwest 425 489 34,000  Level Boston Center
14:47 43.7433 -71.5664 240° Southwest 425 489 34,000  Level Boston Center
14:48 43.6839 -71.7050 239° Southwest 425 489 34,000  Level Boston Center
14:49 43.6264 -71.8378 239° Southwest 425 489 34,000  Level Boston Center
14:50 43.5686 -71.9758 240° Southwest 425 489 34,000  Level Boston Center
14:51 43.5108 -72.1108 239° Southwest 425 489 34,000  Level Boston Center
14:52 43.4506 -72.2428 238° Southwest 425 489 34,000 -600 Level Boston Center
14:53 43.3903 -72.3831 239° Southwest 425 489 32,800 -1,380 Descending Boston Center
14:54 43.3278 -72.5286 239° Southwest 430 495 31,300 -1,800 Descending Boston Center
14:55 43.2608 -72.6767 238° Southwest 448 516 29,200 -1,680 Descending Boston Center
14:56 43.1917 -72.8272 238° Southwest 459 528 28,000 -600 Descending Boston Center
14:57 43.1308 -72.9578 237° Southwest 459 528 28,000 -300 Level Boston Center
14:58 43.0633 -73.1192 240° Southwest 454 522 27,500 -960 Descending Boston Center
14:59 42.9978 -73.2606 238° Southwest 449 517 26,100 -1,320 Descending Boston Center
15:00 42.9383 -73.3844 237° Southwest 449 517 24,900 -1,320 Descending Boston Center
15:01 42.8725 -73.5250 237° Southwest 449 517 23,500 -1,500 Descending Boston Center
15:02 42.7756 -73.6367 220° Southwest 436 502 21,900 -1,320 Descending Boston Center
15:03 42.6525 -73.6428 182° South 404 465 20,900 -900 Descending Boston Center
15:04 42.5358 -73.6347 177° South 404 465 20,100 -780 Descending Boston Center
15:05 42.4256 -73.6297 178° South 409 471 19,400 -720 Descending Boston Center
15:06 42.3381 -73.6225 177° South 376 433 18,700 -720 Descending Boston Center
15:07 42.2339 -73.6206 179° South 353 406 18,000 -600 Descending Boston Center
15:08 42.1464 -73.6189 179° South 347 399 17,500 -960 Descending Boston Center
15:09 42.0542 -73.6508 194° South 341 392 16,100 -1,200 Descending Boston Center
15:10 41.9828 -73.7136 213° Southwest 326 375 15,100 -1,140 Descending Boston Center
15:11 41.9689 -73.8167 260° West 278 320 13,900 -1,440 Descending Boston Center
15:12 41.9592 -73.9253 263° West 289 333 12,300 -1,500 Descending Boston Center
15:13 41.9350 -74.0253 252° West 289 333 10,900 -1,200 Descending Boston Center
15:14 41.8581 -74.0122 173° South 238 274 10,000 -420 Descending Boston Center
15:15 41.7900 -73.9519 147° Southeast 253 291 10,100 -120 Climbing Boston Center
15:16 41.7222 -73.8808 142° Southeast 290 334 9,800 -600 Descending Boston Center
15:17 41.6519 -73.8264 150° Southeast 300 345 9,000 -360 Descending Boston Center
15:18 41.5500 -73.8167 176° South 297 342 9,100 -60 Climbing New York TRACON
15:19 41.4667 -73.8000 171° South 295 339 8,900 -1,140 Descending New York TRACON
15:20 41.3833 -73.8000 180° South 291 335 6,900 -1,320 Descending New York TRACON
15:22 41.2678 -73.7259 151° Southeast  Level FlightAware Approximate
15:22 41.2500 -73.7333 151° Southeast 272 313 5,100  Level New York TRACON
15:23 41.1667 -73.7167 171° South 270 311 4,100 -600 Descending New York TRACON
15:24 41.1000 -73.6833 159° South 269 310 4,000  Descending New York TRACON
15:25 41.0333 -73.6667 169° South 270 311 4,100  Climbing New York TRACON
15:27 40.8833 -73.6500 175° South 261 300 4,000 -60 Descending New York TRACON
15:28 40.8167 -73.6833 201° Southwest 264 304 4,000  Level New York TRACON
15:29 40.7833 -73.7500 237° Southwest 257 296 4,100  Climbing New York TRACON
15:30 40.7833 -73.8500 270° West 255 293 4,000 -60 Descending New York TRACON
15:31 40.7667 -73.9333 255° West 256 295 4,000  Level New York TRACON
15:33 40.7667 -73.8667 90° East  Level FlightAware Approximate
15:33 40.7167 -74.0333 90° East 198 228 4,000  Level New York TRACON